KCBF/CBF METAR and TAF weather

Enter ICAO airport designator
Station Type Date Time Source
KCBF METAR 2022/10/01 08:55 UTC NOAA

KCBF 010855Z AUTO 14006KT 10SM CLR 12/05 A3010 RMK AO2


Station Type Date Time Source
KCBF Decoded METAR 2022/10/01 08:55 UTC NOAA

Council Bluffs, IA, United States (KCBF) 41-16N 095-46W
Oct 01, 2022 - 04:55 AM EDT / 2022.10.01 0855 UTC
Wind: from the SE (140 degrees) at 7 MPH (6 KT):0
Visibility: 10 mile(s):0
Sky conditions: clear
Temperature: 53 F (12 C)
Dew Point: 41 F (5 C)
Relative Humidity: 62%
Pressure (altimeter): 30.1 in. Hg (1019 hPa)
ob: KCBF 010855Z AUTO 14006KT 10SM CLR 12/05 A3010 RMK AO2
cycle: 9

Station Type Date Time Source
KCBF TAF UTC NOAA

Error!

Example: see airport list